Oxford, Nebraska
Current Conditions -  °F | °C
As of 7:35 PM on Wednesday 26 Nov 2014 (Local Time) from KHDE Reporting Station
Clear Clear  
Wind Chill: 27°   Ceiling: Unl
Heat Index: 27°   Visibility: 10mi
Dew Point: 17°   Wind: 0mph
Humidity: 66%   Direction: NA
Pressure: 30.37"   Gusts: NA
Location:  40.25°N, 99.63°W
Report Text: KHDE 270135Z AUTO 00000KT 10SM CLR M03/M09 A3037 RMK AO2 T10301086
Loading
Personal Weather Stations






























Interactive Weather Map New forecast layout! Learn more

10-Day Weather Forecast

Advertisements
Track Severe Weather on mobile